Etusivu
METAR-TAF:

METAR-TAF

Lentoasemat :

Jönköping, Ruotsi

Leveyspiiri: 57-46N, Pituuspiiri: 014-05E, korkeus merenpinnasta: 226 m

Tämänhetkinen sää

Tämä raportti tehtiin 30 minuuttia sitten, kello 20.50 UTC
Tuuli 3 kn etelästä
Lämpötila 17°C
Kosteus 100%
Ilmanpaine 1012 hPa
Näkyvyys 10 km tai enemmän
Hajonneita pilviä 600 ft:n korkeudessa

METAR: ESGJ 222050Z 18003KT 9999 BKN006 17/17 Q1012

Aika: 23:20 (21:20 UTC)

Sääennuste

Tämä raportti tehtiin 50 minuuttia sitten, kello 20.30 UTC
Ennuste voimassa 22. päivästä klo 21 UTC - 23. päivään klo 01 UTC
Tuuli kn pohjoisesta
Näkyvyys 10 km tai enemmän
Hajanaisia pilviä 1500 ft:n korkeudessa
Todennäköisyys 40%
22. päivästä klo 21 UTC - 23. päivään klo 01 UTC
Hajonneita pilviä 1200 ft:n korkeudessa

TAF: ESGJ 222030Z 2221/2301 00000KT 9999 SCT015 PROB40 2221/2301 BKN012

Säähavainnot ja -ennusteet yli 4000 lentoasemalta (METAR- ja TAF-raportit).

Käytössä olevat sääasemat on merkitty karttaan keltaisilla ja punaisilla pisteillä.

Aseta hiiri pisteen päälle nähdäksesi sääaseman nimen.

Klikkaa sitten nähdäksesi säähavainnot ja -ennusteet.

Kartan vaihtaminen: klikkaa mustalla rastilla varustettuja vihreitä pisteitä, niin voit zoomata sisään; viivalla varustettua vihreää pistettä, niin voit zoomata ulos tai vihreitä nuolia, niin pääset viereisille kartoille.


METAR-TAF: